sensor_id;sensor_type;location;lat;lon;timestamp;pressure;altitude;pressure_sealevel;temperature;humidity
50650;BME280;36621;60.058;30.346;2022-12-07T00:07:07;100986.09;;;-2.29;64.73
50650;BME280;36621;60.058;30.346;2022-12-07T00:14:39;100928.28;;;-2.68;64.17
50650;BME280;36621;60.058;30.346;2022-12-07T00:22:12;100997.28;;;-2.25;63.97
50650;BME280;36621;60.058;30.346;2022-12-07T00:29:47;100965.44;;;-2.35;63.90
50650;BME280;36621;60.058;30.346;2022-12-07T00:37:20;100976.31;;;-2.21;63.62
50650;BME280;36621;60.058;30.346;2022-12-07T00:44:52;100976.06;;;-2.27;64.13
50650;BME280;36621;60.058;30.346;2022-12-07T00:52:25;100984.44;;;-2.30;64.24
50650;BME280;36621;60.058;30.346;2022-12-07T00:59:57;100991.13;;;-2.11;64.51
50650;BME280;36621;60.058;30.346;2022-12-07T01:07:31;100989.25;;;-2.10;64.50
50650;BME280;36621;60.058;30.346;2022-12-07T01:15:04;100979.13;;;-2.00;64.56
50650;BME280;36621;60.058;30.346;2022-12-07T01:22:37;100955.03;;;-2.15;64.15
50650;BME280;36621;60.058;30.346;2022-12-07T01:30:11;100951.16;;;-2.12;63.81
50650;BME280;36621;60.058;30.346;2022-12-07T01:37:44;100977.09;;;-1.98;64.01
50650;BME280;36621;60.058;30.346;2022-12-07T01:45:38;100951.06;;;-2.04;64.58
50650;BME280;36621;60.058;30.346;2022-12-07T01:53:12;100973.78;;;-2.00;64.11
50650;BME280;36621;60.058;30.346;2022-12-07T02:00:45;100957.72;;;-2.00;63.30
50650;BME280;36621;60.058;30.346;2022-12-07T02:08:18;100976.00;;;-1.88;63.26
50650;BME280;36621;60.058;30.346;2022-12-07T02:24:15;100971.94;;;-1.99;65.24
50650;BME280;36621;60.058;30.346;2022-12-07T02:31:56;100968.97;;;-1.89;64.12
50650;BME280;36621;60.058;30.346;2022-12-07T02:39:39;100971.00;;;-1.92;64.77
50650;BME280;36621;60.058;30.346;2022-12-07T02:47:15;100959.38;;;-1.99;64.64
50650;BME280;36621;60.058;30.346;2022-12-07T02:54:49;100949.22;;;-1.88;64.69
50650;BME280;36621;60.058;30.346;2022-12-07T03:02:30;100924.03;;;-1.94;64.63
50650;BME280;36621;60.058;30.346;2022-12-07T03:10:10;100955.13;;;-1.78;65.32
50650;BME280;36621;60.058;30.346;2022-12-07T03:17:49;100952.81;;;-1.81;64.18
50650;BME280;36621;60.058;30.346;2022-12-07T03:25:22;100931.97;;;-1.86;64.20
50650;BME280;36621;60.058;30.346;2022-12-07T03:32:59;100938.88;;;-1.62;64.05
50650;BME280;36621;60.058;30.346;2022-12-07T03:40:35;100924.28;;;-1.74;63.88
50650;BME280;36621;60.058;30.346;2022-12-07T03:48:15;100933.88;;;-1.65;64.31
50650;BME280;36621;60.058;30.346;2022-12-07T03:55:53;100930.19;;;-1.64;64.20
50650;BME280;36621;60.058;30.346;2022-12-07T04:03:27;100899.56;;;-1.91;64.14
50650;BME280;36621;60.058;30.346;2022-12-07T04:10:59;100851.81;;;-2.09;64.22
50650;BME280;36621;60.058;30.346;2022-12-07T04:18:32;100894.81;;;-2.11;65.15
50650;BME280;36621;60.058;30.346;2022-12-07T04:26:04;100922.47;;;-1.88;65.73
50650;BME280;36621;60.058;30.346;2022-12-07T04:33:38;100888.25;;;-2.23;66.04
50650;BME280;36621;60.058;30.346;2022-12-07T04:41:12;100862.25;;;-2.29;65.55
50650;BME280;36621;60.058;30.346;2022-12-07T04:48:45;100895.91;;;-2.05;65.85
50650;BME280;36621;60.058;30.346;2022-12-07T04:56:18;100905.28;;;-1.79;65.71
50650;BME280;36621;60.058;30.346;2022-12-07T05:03:51;100913.44;;;-1.87;65.56
50650;BME280;36621;60.058;30.346;2022-12-07T05:11:24;100917.03;;;-1.80;64.91
50650;BME280;36621;60.058;30.346;2022-12-07T05:19:13;100912.81;;;-1.68;64.61
50650;BME280;36621;60.058;30.346;2022-12-07T05:26:46;100877.25;;;-2.13;65.55
50650;BME280;36621;60.058;30.346;2022-12-07T05:34:19;100916.72;;;-1.85;65.79
50650;BME280;36621;60.058;30.346;2022-12-07T05:41:52;100891.09;;;-1.95;65.50
50650;BME280;36621;60.058;30.346;2022-12-07T05:49:43;100862.59;;;-2.17;65.67
50650;BME280;36621;60.058;30.346;2022-12-07T05:57:16;100908.16;;;-1.96;65.64
50650;BME280;36621;60.058;30.346;2022-12-07T06:04:49;100866.94;;;-2.16;65.51
50650;BME280;36621;60.058;30.346;2022-12-07T06:12:21;100909.16;;;-1.67;65.51
50650;BME280;36621;60.058;30.346;2022-12-07T06:20:07;100907.22;;;-1.73;65.60
50650;BME280;36621;60.058;30.346;2022-12-07T06:27:40;100908.22;;;-1.74;65.06
50650;BME280;36621;60.058;30.346;2022-12-07T06:35:13;100873.84;;;-1.92;64.47
50650;BME280;36621;60.058;30.346;2022-12-07T06:42:45;100911.19;;;-1.69;64.77
50650;BME280;36621;60.058;30.346;2022-12-07T06:50:22;100869.75;;;-1.88;65.29
50650;BME280;36621;60.058;30.346;2022-12-07T06:57:55;100908.69;;;-1.70;64.86
50650;BME280;36621;60.058;30.346;2022-12-07T07:05:27;100913.81;;;-1.54;64.30
50650;BME280;36621;60.058;30.346;2022-12-07T15:50:35;100556.88;;;-2.76;62.55
50650;BME280;36621;60.058;30.346;2022-12-07T15:58:08;100608.72;;;-2.55;61.99
50650;BME280;36621;60.058;30.346;2022-12-07T16:05:41;100628.66;;;-2.36;61.91
50650;BME280;36621;60.058;30.346;2022-12-07T16:13:20;100603.59;;;-2.50;62.75
50650;BME280;36621;60.058;30.346;2022-12-07T16:20:53;100600.81;;;-2.42;62.87
50650;BME280;36621;60.058;30.346;2022-12-07T16:28:28;100602.16;;;-2.31;62.25
50650;BME280;36621;60.058;30.346;2022-12-07T16:36:01;100563.66;;;-2.58;62.08
50650;BME280;36621;60.058;30.346;2022-12-07T16:43:35;100580.44;;;-2.43;61.76
50650;BME280;36621;60.058;30.346;2022-12-07T16:51:10;100608.56;;;-2.04;62.63
50650;BME280;36621;60.058;30.346;2022-12-07T16:58:45;100536.34;;;-2.54;61.73
50650;BME280;36621;60.058;30.346;2022-12-07T17:06:24;100597.84;;;-2.11;61.28
50650;BME280;36621;60.058;30.346;2022-12-07T17:13:59;100595.53;;;-2.14;61.75
50650;BME280;36621;60.058;30.346;2022-12-07T17:21:50;100558.03;;;-2.42;61.93
50650;BME280;36621;60.058;30.346;2022-12-07T17:29:22;100578.84;;;-2.16;61.75
50650;BME280;36621;60.058;30.346;2022-12-07T17:36:55;100481.59;;;-2.80;62.40
50650;BME280;36621;60.058;30.346;2022-12-07T17:44:30;100561.09;;;-2.23;62.10
50650;BME280;36621;60.058;30.346;2022-12-07T17:52:03;100553.69;;;-2.21;62.72
50650;BME280;36621;60.058;30.346;2022-12-07T17:59:53;100558.00;;;-1.99;61.78
50650;BME280;36621;60.058;30.346;2022-12-07T18:07:27;100463.66;;;-2.36;61.54
50650;BME280;36621;60.058;30.346;2022-12-07T18:14:59;100506.72;;;-2.31;62.10
50650;BME280;36621;60.058;30.346;2022-12-07T18:22:33;100538.63;;;-2.01;62.77
50650;BME280;36621;60.058;30.346;2022-12-07T18:30:07;100540.97;;;-1.91;62.46
50650;BME280;36621;60.058;30.346;2022-12-07T18:37:41;100530.81;;;-2.24;62.88
50650;BME280;36621;60.058;30.346;2022-12-07T18:45:13;100514.09;;;-2.33;63.20
50650;BME280;36621;60.058;30.346;2022-12-07T18:52:46;100460.34;;;-2.66;63.15
50650;BME280;36621;60.058;30.346;2022-12-07T19:00:20;100510.66;;;-1.98;62.75
50650;BME280;36621;60.058;30.346;2022-12-07T19:07:54;100485.34;;;-1.96;62.04
50650;BME280;36621;60.058;30.346;2022-12-07T19:15:32;100501.34;;;-2.02;62.99
50650;BME280;36621;60.058;30.346;2022-12-07T19:23:06;100438.31;;;-2.47;62.10
50650;BME280;36621;60.058;30.346;2022-12-07T19:30:39;100427.09;;;-2.29;61.60
50650;BME280;36621;60.058;30.346;2022-12-07T19:38:13;100409.50;;;-2.16;61.28
50650;BME280;36621;60.058;30.346;2022-12-07T19:45:45;100472.69;;;-1.80;61.09
50650;BME280;36621;60.058;30.346;2022-12-07T19:53:18;100450.41;;;-2.22;61.43
50650;BME280;36621;60.058;30.346;2022-12-07T20:00:51;100451.56;;;-2.32;60.61
50650;BME280;36621;60.058;30.346;2022-12-07T20:08:26;100462.53;;;-2.27;61.08
50650;BME280;36621;60.058;30.346;2022-12-07T20:16:02;100481.34;;;-2.13;60.34
50650;BME280;36621;60.058;30.346;2022-12-07T20:23:36;100452.38;;;-2.59;60.27
50650;BME280;36621;60.058;30.346;2022-12-07T20:31:13;100453.38;;;-2.39;60.30
50650;BME280;36621;60.058;30.346;2022-12-07T20:38:47;100444.34;;;-2.38;59.73
50650;BME280;36621;60.058;30.346;2022-12-07T20:46:20;100461.88;;;-2.29;59.86
50650;BME280;36621;60.058;30.346;2022-12-07T20:53:54;100465.03;;;-2.18;59.29
50650;BME280;36621;60.058;30.346;2022-12-07T21:01:27;100447.03;;;-2.31;59.27
50650;BME280;36621;60.058;30.346;2022-12-07T21:09:00;100467.09;;;-2.20;58.80
50650;BME280;36621;60.058;30.346;2022-12-07T21:16:32;100443.53;;;-2.60;59.31
50650;BME280;36621;60.058;30.346;2022-12-07T21:24:06;100461.25;;;-2.31;58.72
50650;BME280;36621;60.058;30.346;2022-12-07T21:31:39;100453.84;;;-2.29;58.67
50650;BME280;36621;60.058;30.346;2022-12-07T21:39:12;100439.00;;;-2.38;58.69
50650;BME280;36621;60.058;30.346;2022-12-07T21:46:44;100420.88;;;-2.36;58.72
50650;BME280;36621;60.058;30.346;2022-12-07T21:54:17;100443.44;;;-2.17;58.90
50650;BME280;36621;60.058;30.346;2022-12-07T22:01:50;100393.72;;;-2.39;58.69
50650;BME280;36621;60.058;30.346;2022-12-07T22:09:23;100442.81;;;-2.19;58.23
50650;BME280;36621;60.058;30.346;2022-12-07T22:16:55;100412.25;;;-2.38;58.95
50650;BME280;36621;60.058;30.346;2022-12-07T22:24:29;100402.69;;;-2.19;58.40
50650;BME280;36621;60.058;30.346;2022-12-07T22:32:02;100406.22;;;-2.47;58.13
50650;BME280;36621;60.058;30.346;2022-12-07T22:39:34;100430.88;;;-2.51;59.28
50650;BME280;36621;60.058;30.346;2022-12-07T22:47:08;100377.69;;;-2.68;59.11
50650;BME280;36621;60.058;30.346;2022-12-07T22:54:41;100394.41;;;-2.31;58.07
50650;BME280;36621;60.058;30.346;2022-12-07T23:02:15;100396.94;;;-2.22;58.21
50650;BME280;36621;60.058;30.346;2022-12-07T23:09:50;100401.53;;;-2.03;58.09
50650;BME280;36621;60.058;30.346;2022-12-07T23:17:37;100376.75;;;-2.18;58.15
50650;BME280;36621;60.058;30.346;2022-12-07T23:25:11;100347.69;;;-2.63;58.85
50650;BME280;36621;60.058;30.346;2022-12-07T23:32:44;100361.03;;;-2.35;58.73
50650;BME280;36621;60.058;30.346;2022-12-07T23:40:17;100366.53;;;-2.08;58.42
50650;BME280;36621;60.058;30.346;2022-12-07T23:47:49;100287.31;;;-2.51;58.01
50650;BME280;36621;60.058;30.346;2022-12-07T23:55:22;100347.91;;;-2.30;58.78
